Time;durP1;ratioP1;P1;durP2;ratioP2;P2;SDS_P1;SDS_P2;PMS_P1;PMS_P2;Temp;Humidity;BMP_temperature;BMP_pressure;BME280_temperature;BME280_humidity;BME280_pressure;Samples;Min_cycle;Max_cycle;Signal;HPM_P1;HPM_P2
2022/05/20 00:00:27;;;;;;;6.10;4.25;;;20.80;99.90;;;;;;5050887;28;20057;-80
2022/05/20 00:02:53;;;;;;;8.32;4.50;;;20.80;99.90;;;;;;5043186;28;20053;-80
2022/05/20 00:05:18;;;;;;;15.00;6.72;;;20.80;99.90;;;;;;5048352;28;20432;-83
2022/05/20 00:07:44;;;;;;;9.18;4.63;;;20.80;99.90;;;;;;5057938;28;20029;-82
2022/05/20 00:10:15;;;;;;;16.02;8.40;;;20.70;99.90;;;;;;5054607;28;20029;-79
2022/05/20 00:12:40;;;;;;;9.52;6.05;;;20.80;99.90;;;;;;5057332;28;20462;-83
2022/05/20 00:15:07;;;;;;;7.25;4.68;;;21.00;99.90;;;;;;5052792;28;20424;-82
2022/05/20 00:17:33;;;;;;;9.63;5.07;;;20.80;99.90;;;;;;5064519;28;20031;-81
2022/05/20 00:19:59;;;;;;;8.70;4.88;;;20.80;99.90;;;;;;5053398;28;20021;-79
2022/05/20 00:22:25;;;;;;;9.57;5.97;;;20.70;99.90;;;;;;5047855;28;20048;-80
2022/05/20 00:27:35;;;;;;;9.05;4.50;;;20.70;99.90;;;;;;5049535;28;20032;-84
2022/05/20 00:30:00;;;;;;;6.25;4.32;;;20.70;99.90;;;;;;5053187;28;20395;-83
2022/05/20 00:32:26;;;;;;;7.50;4.47;;;20.60;99.90;;;;;;5054292;28;20094;-82
2022/05/20 00:34:51;;;;;;;9.10;4.38;;;20.60;99.90;;;;;;5052308;28;20033;-83
2022/05/20 00:37:17;;;;;;;6.95;4.72;;;20.60;99.90;;;;;;5051734;28;20033;-80
2022/05/20 00:39:43;;;;;;;6.50;4.35;;;20.50;99.90;;;;;;5054158;28;20178;-83
2022/05/20 00:42:17;;;;;;;7.78;4.28;;;20.50;99.90;;;;;;5051760;28;20727;-81
2022/05/20 00:44:43;;;;;;;8.32;4.72;;;20.40;99.90;;;;;;5050002;28;20099;-83
2022/05/20 00:47:11;;;;;;;6.60;4.47;;;20.40;99.90;;;;;;5055186;28;20029;-80
2022/05/20 00:49:39;;;;;;;8.15;4.25;;;20.40;99.90;;;;;;5054688;28;20031;-81
2022/05/20 00:52:10;;;;;;;8.25;4.68;;;20.30;99.90;;;;;;5054271;28;20433;-81
2022/05/20 00:55:00;;;;;;;8.93;4.80;;;20.20;99.90;;;;;;5044707;28;20033;-83
2022/05/20 00:57:33;;;;;;;10.27;4.27;;;20.30;99.90;;;;;;5047875;28;20029;-82
2022/05/20 01:00:24;;;;;;;8.50;4.65;;;20.40;99.90;;;;;;5036489;28;20280;-80
2022/05/20 01:02:54;;;;;;;8.13;4.90;;;20.40;99.90;;;;;;5053344;28;20029;-82
2022/05/20 01:05:43;;;;;;;10.30;5.43;;;20.30;99.90;;;;;;5050622;28;20029;-81
2022/05/20 01:08:13;;;;;;;9.32;4.95;;;20.40;99.90;;;;;;5052539;28;20031;-81
2022/05/20 01:10:39;;;;;;;8.93;5.32;;;20.30;99.90;;;;;;5051868;28;20125;-82
2022/05/20 01:13:04;;;;;;;9.73;5.90;;;20.40;99.90;;;;;;5054672;28;20057;-81
2022/05/20 01:15:30;;;;;;;10.18;6.15;;;20.30;99.90;;;;;;5055327;28;20043;-81
2022/05/20 01:17:57;;;;;;;8.48;4.93;;;20.30;99.90;;;;;;5059562;28;20032;-82
2022/05/20 01:20:28;;;;;;;14.90;7.10;;;20.20;99.90;;;;;;5041356;28;20029;-82
2022/05/20 01:22:53;;;;;;;11.38;6.32;;;20.40;99.90;;;;;;5049147;28;20057;-82
2022/05/20 01:25:20;;;;;;;7.32;5.65;;;20.20;99.90;;;;;;5053789;28;20033;-79
2022/05/20 01:27:46;;;;;;;8.45;5.32;;;20.20;99.90;;;;;;5055418;28;20064;-78
2022/05/20 01:30:18;;;;;;;11.48;6.35;;;20.20;99.90;;;;;;5059666;28;20025;-82
2022/05/20 01:32:44;;;;;;;9.25;6.28;;;20.10;99.90;;;;;;5054640;28;20108;-80
2022/05/20 01:35:32;;;;;;;10.15;5.88;;;20.10;99.90;;;;;;5055897;28;20055;-80
2022/05/20 01:37:58;;;;;;;9.40;5.70;;;20.20;99.90;;;;;;5055922;28;20483;-81
2022/05/20 01:40:24;;;;;;;9.02;5.40;;;20.30;99.90;;;;;;5051483;28;20030;-80
2022/05/20 01:43:08;;;;;;;9.85;5.85;;;20.40;99.90;;;;;;5056149;28;20087;-81
2022/05/20 01:45:47;;;;;;;8.40;5.10;;;20.30;99.90;;;;;;5055758;28;20398;-81
2022/05/20 01:48:26;;;;;;;8.10;5.63;;;20.20;99.90;;;;;;5066434;28;20024;-79
2022/05/20 01:50:55;;;;;;;10.25;6.00;;;20.10;99.90;;;;;;5060921;28;20020;-82
2022/05/20 01:53:42;;;;;;;8.38;6.63;;;20.10;99.90;;;;;;5054342;28;20090;-78
2022/05/20 01:56:16;;;;;;;9.43;6.25;;;20.00;99.90;;;;;;5051420;28;20033;-82
2022/05/20 01:58:50;;;;;;;8.75;5.55;;;19.90;99.90;;;;;;5050782;28;20020;-79
2022/05/20 02:01:31;;;;;;;8.02;6.13;;;19.90;99.90;;;;;;5058271;28;20052;-81
2022/05/20 02:04:04;;;;;;;9.80;6.13;;;19.90;99.90;;;;;;5054120;28;20029;-79
2022/05/20 02:06:38;;;;;;;9.27;6.57;;;19.80;99.90;;;;;;5052213;28;20025;-80
2022/05/20 02:09:15;;;;;;;9.07;6.60;;;19.90;99.90;;;;;;5050244;28;20029;-80
2022/05/20 02:11:51;;;;;;;9.07;6.75;;;19.80;99.90;;;;;;5056486;28;20029;-81
2022/05/20 02:14:35;;;;;;;10.95;6.72;;;19.80;99.90;;;;;;5058388;28;20091;-80
2022/05/20 02:17:25;;;;;;;11.60;7.57;;;19.90;99.90;;;;;;5051134;28;20491;-79
2022/05/20 02:20:09;;;;;;;11.43;7.57;;;19.80;99.90;;;;;;5059102;28;20020;-81
2022/05/20 02:23:06;;;;;;;11.02;7.30;;;19.70;99.90;;;;;;5054819;28;20503;-84
2022/05/20 02:25:36;;;;;;;11.82;7.63;;;19.70;99.90;;;;;;5041639;28;20442;-79
2022/05/20 02:28:15;;;;;;;;;;;19.60;99.90;;;;;;5069638;28;20025;-79
2022/05/20 02:30:42;;;;;;;12.30;7.60;;;19.70;99.90;;;;;;5052433;28;19954;-80
2022/05/20 02:33:17;;;;;;;13.25;8.57;;;19.60;99.90;;;;;;5052955;28;20052;-79
2022/05/20 02:35:43;;;;;;;10.80;7.40;;;19.60;99.90;;;;;;5053556;28;20108;-78
2022/05/20 02:38:12;;;;;;;9.98;7.53;;;19.60;99.90;;;;;;5058479;28;20025;-81
2022/05/20 02:40:41;;;;;;;10.13;7.05;;;19.50;99.90;;;;;;5056961;28;20510;-80
2022/05/20 02:43:07;;;;;;;8.68;7.13;;;19.50;99.90;;;;;;5051088;28;20025;-81
2022/05/20 02:45:34;;;;;;;12.43;7.30;;;19.50;99.90;;;;;;5050654;28;20070;-81
2022/05/20 02:48:00;;;;;;;12.93;7.60;;;19.50;99.90;;;;;;5060552;28;20031;-82
2022/05/20 02:50:25;;;;;;;13.88;7.30;;;19.60;99.90;;;;;;5055503;28;20060;-81
2022/05/20 02:52:51;;;;;;;10.57;6.63;;;19.50;99.90;;;;;;5053307;28;20061;-82
2022/05/20 02:55:17;;;;;;;11.10;7.15;;;19.50;99.90;;;;;;5054912;28;20041;-80
2022/05/20 02:57:44;;;;;;;10.80;6.85;;;19.60;99.90;;;;;;5051118;28;20028;-81
2022/05/20 03:05:55;;;;;;;12.80;7.55;;;19.60;99.90;;;;;;5020616;28;20605;-80
2022/05/20 03:08:21;;;;;;;9.68;6.95;;;19.50;99.90;;;;;;5051680;28;20037;-81
2022/05/20 03:10:47;;;;;;;9.90;6.97;;;19.60;99.90;;;;;;5055154;28;20013;-80
2022/05/20 03:13:12;;;;;;;8.65;7.10;;;19.60;99.90;;;;;;5056657;28;20021;-80
2022/05/20 03:15:39;;;;;;;7.68;6.57;;;19.60;99.90;;;;;;5047280;28;20030;-80
2022/05/20 03:18:06;;;;;;;9.00;6.78;;;19.70;99.90;;;;;;5053404;28;20549;-81
2022/05/20 03:20:32;;;;;;;9.68;6.50;;;19.70;99.90;;;;;;5055004;28;20551;-82
2022/05/20 03:22:58;;;;;;;11.82;6.68;;;19.70;99.90;;;;;;5045298;28;20029;-80
2022/05/20 03:25:24;;;;;;;9.55;6.95;;;19.60;99.90;;;;;;5053431;28;20421;-81
2022/05/20 03:27:50;;;;;;;9.38;6.65;;;19.50;99.90;;;;;;5058165;28;20040;-80
2022/05/20 03:30:16;;;;;;;9.88;6.70;;;19.50;99.90;;;;;;5055490;28;20021;-80
2022/05/20 03:32:42;;;;;;;9.60;6.82;;;19.50;99.90;;;;;;5055930;28;20368;-81
2022/05/20 03:35:08;;;;;;;8.35;6.10;;;19.40;99.90;;;;;;5055793;28;20051;-82
2022/05/20 03:37:33;;;;;;;10.70;6.68;;;19.40;99.90;;;;;;5055824;28;20033;-81
2022/05/20 03:39:59;;;;;;;9.60;7.05;;;19.30;99.90;;;;;;5052605;28;20055;-81
2022/05/20 03:42:26;;;;;;;8.45;6.43;;;19.30;99.90;;;;;;5055275;28;20417;-82
2022/05/20 03:44:52;;;;;;;14.20;8.07;;;19.40;99.90;;;;;;5059161;28;20463;-80
2022/05/20 03:47:18;;;;;;;9.38;7.00;;;19.30;99.90;;;;;;5060088;28;20167;-82
2022/05/20 03:49:45;;;;;;;8.73;7.15;;;19.30;99.90;;;;;;5054917;28;20553;-80
2022/05/20 03:52:11;;;;;;;9.55;7.30;;;19.30;99.90;;;;;;5052617;28;20028;-80
2022/05/20 03:54:37;;;;;;;10.60;7.57;;;19.20;99.90;;;;;;5052063;28;20043;-83
2022/05/20 03:57:03;;;;;;;9.45;6.47;;;19.20;99.90;;;;;;5054815;28;20051;-83
2022/05/20 03:59:30;;;;;;;12.20;7.72;;;19.20;99.90;;;;;;5058561;28;20028;-82
2022/05/20 04:01:59;;;;;;;10.38;6.82;;;19.20;99.90;;;;;;5057781;28;20025;-82
2022/05/20 04:04:27;;;;;;;9.32;7.13;;;19.20;99.90;;;;;;5053471;28;20386;-81
2022/05/20 04:06:53;;;;;;;11.40;6.70;;;19.10;99.90;;;;;;5051096;28;20048;-83
2022/05/20 04:09:19;;;;;;;8.80;7.22;;;19.10;99.90;;;;;;5046571;28;20017;-83
2022/05/20 04:11:45;;;;;;;7.20;6.35;;;19.30;99.90;;;;;;5049906;28;20021;-82
2022/05/20 04:14:11;;;;;;;8.35;6.45;;;19.20;99.90;;;;;;5054773;28;20024;-81
2022/05/20 04:16:37;;;;;;;9.50;7.10;;;19.20;99.90;;;;;;5054755;28;20029;-81
2022/05/20 04:19:03;;;;;;;12.43;6.97;;;19.20;99.90;;;;;;5058097;28;20016;-82
2022/05/20 04:21:29;;;;;;;11.40;7.07;;;19.20;99.90;;;;;;5048872;28;20116;-80
2022/05/20 04:23:54;;;;;;;12.73;6.80;;;19.30;99.90;;;;;;5052328;28;20040;-79
2022/05/20 04:26:20;;;;;;;9.07;6.85;;;19.30;99.90;;;;;;5054920;28;20033;-81
2022/05/20 04:28:45;;;;;;;9.63;6.93;;;19.20;99.90;;;;;;5055595;28;20017;-82
2022/05/20 04:31:12;;;;;;;11.77;7.25;;;19.30;99.90;;;;;;5053543;28;20033;-80
2022/05/20 04:33:38;;;;;;;9.88;6.75;;;19.50;99.90;;;;;;5054969;28;20050;-84
2022/05/20 04:36:05;;;;;;;11.85;7.45;;;19.50;99.90;;;;;;5053541;28;20479;-81
2022/05/20 04:38:31;;;;;;;8.60;6.85;;;19.40;99.90;;;;;;5050192;28;20029;-83
2022/05/20 04:49:10;;;;;;;10.05;7.53;;;19.50;99.90;;;;;;5052447;28;20040;-83
2022/05/20 04:51:37;;;;;;;13.32;7.70;;;19.60;99.90;;;;;;5051932;28;20021;-82
2022/05/20 04:56:47;;;;;;;10.07;7.28;;;19.60;99.90;;;;;;5060878;28;20044;-81
2022/05/20 04:59:13;;;;;;;9.10;6.90;;;19.70;99.90;;;;;;5063906;28;20021;-81
2022/05/20 05:01:39;;;;;;;11.88;7.13;;;19.80;99.90;;;;;;5053782;28;20022;-83
2022/05/20 05:04:09;;;;;;;9.88;7.22;;;19.90;99.90;;;;;;5056741;28;20028;-83
2022/05/20 05:06:34;;;;;;;12.20;7.60;;;19.90;99.90;;;;;;5042638;28;20025;-83
2022/05/20 05:09:00;;;;;;;10.20;6.93;;;19.90;99.90;;;;;;5056949;28;20072;-83
2022/05/20 05:11:26;;;;;;;8.18;7.00;;;20.00;99.90;;;;;;5060630;28;20111;-82
2022/05/20 05:13:52;;;;;;;12.13;7.45;;;20.20;99.90;;;;;;5040639;28;20437;-82
2022/05/20 05:16:17;;;;;;;11.63;7.40;;;20.00;99.90;;;;;;5060076;28;20056;-85
2022/05/20 05:18:43;;;;;;;10.55;7.95;;;20.30;99.90;;;;;;5060789;28;20075;-86
2022/05/20 05:21:13;;;;;;;10.82;7.20;;;20.10;99.90;;;;;;5056627;28;20906;-86
2022/05/20 05:23:39;;;;;;;13.50;7.15;;;20.70;99.90;;;;;;5034443;28;20038;-86
2022/05/20 05:26:05;;;;;;;11.93;6.85;;;21.10;99.90;;;;;;5056707;28;20048;-88
2022/05/20 05:28:31;;;;;;;9.32;7.00;;;21.70;99.90;;;;;;5058088;28;20082;-85
2022/05/20 05:30:58;;;;;;;11.30;7.18;;;22.20;99.90;;;;;;5064005;28;20020;-86
2022/05/20 05:33:25;;;;;;;9.63;6.78;;;22.60;99.90;;;;;;5061020;28;20029;-85
2022/05/20 05:35:50;;;;;;;12.18;7.10;;;22.70;99.90;;;;;;5061250;28;20033;-85
2022/05/20 05:38:16;;;;;;;9.25;6.82;;;23.00;99.90;;;;;;5064589;28;20029;-84
2022/05/20 05:40:42;;;;;;;8.65;6.47;;;23.10;99.90;;;;;;5064244;28;20029;-86
2022/05/20 05:43:08;;;;;;;14.52;6.18;;;23.20;99.90;;;;;;5064667;28;20447;-85
2022/05/20 05:45:37;;;;;;;9.38;6.38;;;23.40;99.90;;;;;;5064101;28;20036;-83
2022/05/20 05:48:06;;;;;;;8.80;6.13;;;23.80;99.90;;;;;;5058222;28;20040;-83
2022/05/20 05:50:33;;;;;;;8.93;5.88;;;23.90;99.90;;;;;;5054666;28;20056;-84
2022/05/20 05:53:19;;;;;;;9.20;6.00;;;23.80;99.90;;;;;;5050989;28;20052;-87
2022/05/20 05:55:47;;;;;;;11.05;5.90;;;23.90;99.90;;;;;;5053775;28;20029;-84
2022/05/20 05:58:14;;;;;;;10.23;6.15;;;23.30;99.90;;;;;;5055798;28;20029;-84
2022/05/20 06:00:40;;;;;;;11.55;6.07;;;23.10;99.90;;;;;;5050604;28;20487;-84
2022/05/20 06:03:07;;;;;;;9.70;6.13;;;23.50;99.90;;;;;;5051447;28;20033;-85
2022/05/20 06:05:34;;;;;;;10.15;5.40;;;23.70;99.90;;;;;;5052657;28;20045;-85
2022/05/20 06:08:00;;;;;;;13.85;4.88;;;23.80;99.90;;;;;;5053410;28;20551;-86
2022/05/20 06:10:26;;;;;;;10.25;5.00;;;24.10;99.90;;;;;;5049654;28;20127;-87
2022/05/20 06:12:52;;;;;;;7.22;4.50;;;24.30;99.90;;;;;;5058621;28;20029;-82
2022/05/20 06:15:22;;;;;;;8.77;4.63;;;24.40;99.90;;;;;;5057853;28;20044;-84
2022/05/20 06:17:49;;;;;;;9.13;4.28;;;24.60;99.90;;;;;;5056173;28;20048;-85
2022/05/20 06:20:15;;;;;;;12.73;4.65;;;24.40;99.90;;;;;;5050791;28;20025;-83
2022/05/20 06:22:41;;;;;;;15.40;4.55;;;24.10;99.90;;;;;;5051770;28;20095;-86
2022/05/20 06:25:09;;;;;;;12.73;4.65;;;23.90;99.90;;;;;;5059809;28;20756;-83
2022/05/20 06:27:35;;;;;;;10.57;4.53;;;23.80;99.90;;;;;;5037541;28;20052;-84
2022/05/20 06:30:08;;;;;;;11.27;4.97;;;23.70;99.90;;;;;;5057223;28;20581;-86
2022/05/20 06:32:35;;;;;;;10.38;4.65;;;23.60;99.90;;;;;;5058726;28;20124;-84
2022/05/20 06:40:44;;;;;;;7.03;3.75;;;23.60;99.90;;;;;;5065803;28;20095;-83
2022/05/20 06:43:11;;;;;;;7.18;3.78;;;23.60;99.90;;;;;;5060148;28;20457;-82
2022/05/20 06:45:37;;;;;;;14.60;3.90;;;23.70;99.90;;;;;;5052990;28;20025;-84
2022/05/20 06:48:03;;;;;;;10.25;3.70;;;23.70;99.90;;;;;;5056924;28;20063;-82
2022/05/20 06:50:28;;;;;;;11.05;3.85;;;23.70;99.90;;;;;;5055672;28;20083;-82
2022/05/20 06:52:54;;;;;;;6.63;3.03;;;23.70;99.90;;;;;;5062517;28;20448;-82
2022/05/20 06:55:19;;;;;;;6.43;3.50;;;23.80;99.60;;;;;;5056114;28;20342;-83
2022/05/20 06:57:45;;;;;;;6.07;3.60;;;23.80;98.60;;;;;;5047479;28;20021;-84
2022/05/20 07:00:12;;;;;;;18.67;3.35;;;23.80;99.40;;;;;;5046243;28;20025;-83
2022/05/20 07:02:39;;;;;;;6.75;3.03;;;23.90;97.20;;;;;;5046205;28;20030;-81
2022/05/20 07:05:06;;;;;;;7.53;3.30;;;23.90;97.50;;;;;;5032360;28;20086;-85
2022/05/20 07:07:47;;;;;;;8.15;3.50;;;24.00;97.90;;;;;;5062525;28;20021;-84
2022/05/20 07:10:15;;;;;;;8.18;3.28;;;24.00;97.40;;;;;;5066064;28;20029;-83
2022/05/20 07:12:41;;;;;;;5.00;2.78;;;24.20;96.90;;;;;;5045364;28;20021;-85
2022/05/20 07:15:08;;;;;;;7.60;2.80;;;24.10;96.40;;;;;;5049963;28;20025;-86
2022/05/20 07:17:34;;;;;;;8.25;3.55;;;24.00;96.50;;;;;;5051425;28;20044;-84
2022/05/20 07:20:00;;;;;;;8.35;3.00;;;24.10;96.30;;;;;;5034426;28;20526;-83
2022/05/20 07:22:26;;;;;;;5.90;3.00;;;24.20;96.30;;;;;;5052734;28;20138;-84
2022/05/20 07:24:51;;;;;;;9.55;3.33;;;24.30;95.50;;;;;;5052602;28;20013;-83
2022/05/20 07:27:17;;;;;;;8.50;3.50;;;24.40;95.40;;;;;;5052688;28;20498;-84
2022/05/20 07:29:43;;;;;;;8.63;2.83;;;24.50;95.30;;;;;;5053220;28;20021;-82
2022/05/20 07:32:09;;;;;;;10.27;2.85;;;24.40;94.80;;;;;;5047030;28;20025;-83
2022/05/20 07:34:35;;;;;;;7.50;3.33;;;24.30;94.90;;;;;;5034836;28;20037;-84
2022/05/20 07:37:01;;;;;;;8.20;3.13;;;24.20;95.10;;;;;;5054006;28;20025;-81
2022/05/20 07:39:27;;;;;;;9.25;3.28;;;24.30;94.90;;;;;;5068501;28;20029;-84
2022/05/20 07:41:53;;;;;;;9.45;3.50;;;24.40;94.70;;;;;;5052409;28;20112;-82
2022/05/20 07:44:19;;;;;;;8.95;3.38;;;24.40;94.50;;;;;;5051819;28;20076;-83
2022/05/20 07:46:45;;;;;;;5.50;2.97;;;24.50;94.60;;;;;;5051430;28;20024;-83
2022/05/20 07:49:11;;;;;;;8.43;2.70;;;24.60;94.20;;;;;;5054414;28;20033;-81
2022/05/20 07:51:39;;;;;;;7.45;2.80;;;24.70;94.20;;;;;;5050520;28;20395;-81
2022/05/20 07:54:14;;;;;;;8.15;2.90;;;24.70;94.20;;;;;;5053690;28;20032;-84
2022/05/20 07:56:49;;;;;;;12.18;3.67;;;24.80;94.10;;;;;;5050313;28;21515;-83
2022/05/20 07:59:30;;;;;;;9.40;3.22;;;24.80;94.10;;;;;;5054539;28;20029;-83
2022/05/20 08:01:57;;;;;;;10.07;3.05;;;24.90;94.10;;;;;;5047608;28;20608;-83
2022/05/20 08:04:53;;;;;;;7.18;2.95;;;24.90;93.80;;;;;;5056175;28;20143;-83
2022/05/20 08:07:20;;;;;;;5.85;3.28;;;24.90;93.90;;;;;;5054643;28;20364;-84
2022/05/20 08:09:46;;;;;;;8.80;3.00;;;25.00;94.10;;;;;;5054603;28;20021;-84
2022/05/20 08:12:12;;;;;;;8.90;3.20;;;25.20;93.80;;;;;;5057901;28;20036;-84
2022/05/20 08:14:37;;;;;;;8.45;3.22;;;25.30;93.90;;;;;;5049123;28;20507;-84
2022/05/20 08:17:05;;;;;;;9.68;3.05;;;25.50;93.90;;;;;;5055869;28;20037;-81
2022/05/20 08:19:30;;;;;;;10.32;3.90;;;25.70;92.90;;;;;;5051236;28;20032;-86
2022/05/20 08:21:57;;;;;;;10.15;3.30;;;25.80;93.40;;;;;;5053434;28;20052;-84
2022/05/20 08:24:23;;;;;;;6.57;3.00;;;25.80;92.40;;;;;;5051511;28;20025;-85
2022/05/20 08:26:49;;;;;;;7.22;3.60;;;25.90;92.30;;;;;;5047730;28;20021;-83
2022/05/20 08:29:16;;;;;;;8.27;3.17;;;26.10;92.10;;;;;;5056074;28;20424;-84
2022/05/20 08:31:43;;;;;;;7.53;3.35;;;26.30;91.40;;;;;;5055637;28;20099;-83
2022/05/20 08:34:09;;;;;;;8.98;3.13;;;26.30;91.10;;;;;;5056512;28;20084;-84
2022/05/20 08:36:36;;;;;;;9.00;3.00;;;26.40;91.10;;;;;;5057069;28;20035;-84
2022/05/20 08:39:03;;;;;;;10.88;2.95;;;26.60;90.80;;;;;;5050905;28;20040;-84
2022/05/20 08:41:38;;;;;;;9.40;3.10;;;26.60;90.90;;;;;;5071402;28;20032;-84
2022/05/20 08:44:06;;;;;;;7.70;2.95;;;26.70;90.60;;;;;;5049581;28;20044;-84
2022/05/20 08:46:32;;;;;;;8.00;2.95;;;26.60;90.40;;;;;;5054806;28;20119;-84
2022/05/20 08:48:58;;;;;;;8.85;3.08;;;26.60;90.90;;;;;;5054146;28;20037;-83
2022/05/20 08:51:29;;;;;;;7.63;3.40;;;26.60;90.00;;;;;;5052730;28;20043;-87
2022/05/20 08:53:55;;;;;;;12.27;3.40;;;26.60;89.70;;;;;;5050668;28;20029;-82
2022/05/20 08:56:25;;;;;;;8.00;2.90;;;26.50;89.40;;;;;;5053508;28;20032;-83
2022/05/20 08:58:58;;;;;;;8.65;3.20;;;26.50;89.50;;;;;;5056311;28;20021;-84
2022/05/20 09:01:32;;;;;;;9.75;3.92;;;26.60;89.20;;;;;;5056696;28;20040;-83
2022/05/20 09:03:59;;;;;;;7.18;3.05;;;26.90;88.20;;;;;;5050674;28;20021;-81
2022/05/20 09:06:25;;;;;;;8.90;3.47;;;26.90;87.40;;;;;;5056990;28;20021;-84
2022/05/20 09:09:03;;;;;;;6.40;3.03;;;27.00;87.50;;;;;;5058545;28;20036;-83
2022/05/20 09:11:29;;;;;;;8.82;3.53;;;27.10;87.60;;;;;;5056752;28;20513;-83
2022/05/20 09:17:12;;;;;;;8.57;3.20;;;27.10;86.80;;;;;;5060603;28;20116;-85
2022/05/20 09:19:52;;;;;;;11.02;3.08;;;27.20;87.00;;;;;;5055171;28;20029;-85
2022/05/20 09:22:28;;;;;;;11.05;4.82;;;27.20;86.40;;;;;;5055738;28;20087;-84
2022/05/20 09:24:55;;;;;;;9.30;3.00;;;27.30;86.30;;;;;;5051606;28;20024;-84
2022/05/20 09:27:29;;;;;;;7.82;3.00;;;27.50;87.30;;;;;;5055057;28;20036;-84
2022/05/20 09:30:06;;;;;;;10.05;3.15;;;27.70;85.40;;;;;;5050415;28;20021;-83
2022/05/20 09:32:39;;;;;;;9.20;3.10;;;27.80;85.30;;;;;;5058262;28;20033;-85
2022/05/20 09:35:07;;;;;;;9.63;3.72;;;27.90;84.60;;;;;;5057766;28;20064;-85
2022/05/20 09:37:34;;;;;;;10.00;3.00;;;27.70;84.80;;;;;;5059387;28;20083;-84
2022/05/20 09:40:18;;;;;;;11.85;3.80;;;27.60;84.80;;;;;;5055642;28;20048;-85
2022/05/20 09:42:59;;;;;;;8.13;3.10;;;27.50;84.80;;;;;;5057998;28;20037;-84
2022/05/20 09:45:25;;;;;;;8.10;3.42;;;27.50;84.60;;;;;;5054260;28;20102;-86
2022/05/20 09:47:54;;;;;;;6.68;2.90;;;27.50;84.90;;;;;;5055424;28;20099;-83
2022/05/20 09:50:38;;;;;;;7.90;3.23;;;27.40;84.90;;;;;;5055247;28;20077;-84
2022/05/20 09:53:24;;;;;;;11.70;3.42;;;27.40;84.80;;;;;;5057556;28;20051;-83
2022/05/20 09:55:50;;;;;;;7.22;3.15;;;27.40;84.90;;;;;;5053671;28;20025;-85
2022/05/20 09:58:19;;;;;;;8.68;2.67;;;27.20;85.40;;;;;;5053388;28;20052;-84
2022/05/20 10:01:10;;;;;;;6.13;2.97;;;27.10;84.90;;;;;;5062205;28;20037;-85
2022/05/20 10:03:50;;;;;;;8.60;2.92;;;27.10;84.60;;;;;;5060787;28;20083;-84
2022/05/20 10:06:18;;;;;;;7.32;2.92;;;27.10;84.60;;;;;;5053800;28;20173;-84
2022/05/20 10:09:12;;;;;;;10.13;3.23;;;26.70;85.80;;;;;;5071015;28;20029;-85
2022/05/20 10:12:01;;;;;;;13.07;3.20;;;26.60;86.50;;;;;;5069407;28;20026;-84
2022/05/20 10:14:45;;;;;;;8.30;3.17;;;26.60;86.80;;;;;;5051869;28;20120;-83
2022/05/20 10:17:55;;;;;;;10.98;3.25;;;26.90;85.90;;;;;;5070486;28;20561;-84
2022/05/20 10:20:45;;;;;;;6.20;2.63;;;27.40;85.20;;;;;;5053592;28;20106;-82
2022/05/20 10:23:49;;;;;;;10.00;3.00;;;27.70;83.70;;;;;;5051595;28;20037;-83
2022/05/20 10:26:35;;;;;;;10.18;3.10;;;27.90;83.00;;;;;;5058890;28;20040;-82
2022/05/20 10:34:57;;;;;;;7.38;2.60;;;28.50;80.70;;;;;;5054088;28;20548;-83
2022/05/20 10:37:22;;;;;;;8.57;2.78;;;28.40;80.10;;;;;;5058267;28;20037;-86
2022/05/20 10:40:01;;;;;;;8.02;3.13;;;28.60;79.80;;;;;;5056723;28;20025;-85
2022/05/20 10:42:48;;;;;;;6.77;3.00;;;28.60;79.80;;;;;;5052426;28;20037;-85
2022/05/20 10:48:52;;;;;;;7.03;3.03;;;28.50;81.00;;;;;;5056631;28;20072;-86
2022/05/20 10:51:32;;;;;;;6.45;2.90;;;28.60;80.10;;;;;;5052846;28;20025;-84
2022/05/20 10:54:17;;;;;;;11.65;3.33;;;28.50;80.30;;;;;;5051994;28;20569;-84
2022/05/20 10:57:17;;;;;;;5.28;2.75;;;28.60;80.90;;;;;;5055136;28;20026;-84
2022/05/20 11:00:09;;;;;;;7.10;3.05;;;28.70;78.60;;;;;;5056686;28;20109;-84
2022/05/20 11:02:59;;;;;;;9.85;3.20;;;28.80;78.00;;;;;;5055120;28;20037;-82
2022/05/20 11:05:52;;;;;;;10.05;2.83;;;28.70;78.20;;;;;;5055804;28;20471;-85
2022/05/20 11:08:27;;;;;;;8.35;2.80;;;28.80;77.90;;;;;;5068442;28;20017;-83
2022/05/20 11:11:11;;;;;;;7.43;2.63;;;28.80;78.30;;;;;;5063207;28;20027;-83
2022/05/20 11:13:42;;;;;;;8.32;3.08;;;29.00;77.90;;;;;;5052449;28;20033;-82
2022/05/20 11:16:32;;;;;;;8.50;3.20;;;29.20;78.40;;;;;;5053721;28;20017;-83
2022/05/20 11:19:33;;;;;;;7.65;2.88;;;29.30;78.20;;;;;;5047610;28;20037;-82
2022/05/20 11:22:17;;;;;;;8.75;2.80;;;29.40;77.80;;;;;;5049263;28;20025;-83
2022/05/20 11:25:13;;;;;;;7.05;2.53;;;29.50;77.40;;;;;;5045508;28;20056;-82
2022/05/20 11:27:45;;;;;;;8.63;3.13;;;29.50;76.80;;;;;;5044572;28;20044;-83
2022/05/20 11:30:30;;;;;;;6.63;2.78;;;29.70;76.40;;;;;;5045702;28;20077;-83
2022/05/20 11:33:10;;;;;;;6.55;2.80;;;29.70;76.70;;;;;;5053695;28;20083;-81
2022/05/20 11:36:02;;;;;;;;;;;29.60;77.70;;;;;;5063637;28;20096;-83
2022/05/20 11:38:27;;;;;;;7.30;2.97;;;29.50;76.80;;;;;;5030275;28;19909;-81
2022/05/20 11:41:05;;;;;;;6.43;2.53;;;29.50;77.10;;;;;;5058618;28;20036;-81
2022/05/20 11:43:55;;;;;;;6.18;3.05;;;29.50;76.70;;;;;;5041191;28;20041;-81
2022/05/20 11:46:27;;;;;;;9.88;3.08;;;29.40;76.80;;;;;;5068706;28;20033;-82
2022/05/20 11:49:14;;;;;;;9.45;3.33;;;29.60;77.50;;;;;;5055643;28;20032;-81
2022/05/20 11:51:43;;;;;;;5.93;3.10;;;29.90;76.30;;;;;;5052781;28;20032;-83
2022/05/20 11:54:17;;;;;;;6.07;2.65;;;29.90;76.00;;;;;;5048617;28;20028;-82
2022/05/20 11:56:57;;;;;;;9.30;3.10;;;29.80;75.80;;;;;;5045774;28;20021;-83
2022/05/20 11:59:34;;;;;;;9.15;2.50;;;29.70;76.00;;;;;;5047775;28;20029;-83
2022/05/20 12:02:10;;;;;;;7.30;2.72;;;29.50;76.10;;;;;;5051399;28;20033;-82
2022/05/20 12:04:39;;;;;;;9.63;2.88;;;29.40;76.90;;;;;;5049464;28;20053;-83
2022/05/20 12:07:07;;;;;;;7.03;2.78;;;29.40;76.40;;;;;;5052870;28;20036;-84
2022/05/20 12:09:32;;;;;;;7.10;2.95;;;29.50;78.70;;;;;;5052736;28;20075;-81
2022/05/20 12:12:17;;;;;;;7.80;3.20;;;29.50;76.30;;;;;;5065402;28;20499;-80
2022/05/20 12:15:18;;;;;;;8.55;2.78;;;29.60;76.20;;;;;;5044936;28;20033;-82
2022/05/20 12:17:46;;;;;;;7.07;2.90;;;29.60;77.30;;;;;;5027115;28;20509;-79
2022/05/20 12:26:00;;;;;;;7.65;3.00;;;29.20;76.60;;;;;;5044976;28;20501;-80
2022/05/20 12:28:25;;;;;;;11.80;3.25;;;29.00;76.30;;;;;;5062012;28;20040;-82
2022/05/20 12:31:22;;;;;;;8.25;2.88;;;29.10;82.90;;;;;;5063602;28;20035;-83
2022/05/20 12:34:00;;;;;;;9.38;2.80;;;29.20;81.40;;;;;;5050544;28;20032;-82
2022/05/20 12:36:28;;;;;;;9.35;2.63;;;29.50;81.00;;;;;;5045429;28;20119;-82
2022/05/20 12:39:06;;;;;;;11.20;2.83;;;29.50;78.50;;;;;;5063550;28;20387;-82
2022/05/20 12:41:47;;;;;;;9.05;3.25;;;29.60;78.00;;;;;;5048942;28;20457;-81
2022/05/20 12:44:16;;;;;;;6.68;2.97;;;29.80;76.90;;;;;;5048913;28;20052;-83
2022/05/20 12:47:12;;;;;;;7.73;2.87;;;29.80;74.90;;;;;;5044488;28;20033;-82
2022/05/20 12:49:49;;;;;;;8.55;3.30;;;29.60;75.30;;;;;;5061214;28;20029;-83
2022/05/20 12:52:14;;;;;;;5.03;2.88;;;29.20;76.20;;;;;;5050971;28;20075;-82
2022/05/20 12:54:43;;;;;;;6.57;3.15;;;29.00;76.90;;;;;;5063696;28;20058;-82
2022/05/20 12:57:26;;;;;;;7.22;3.30;;;28.80;82.30;;;;;;5045069;28;20029;-82
2022/05/20 13:00:02;;;;;;;8.07;3.80;;;28.60;80.00;;;;;;5052331;28;20024;-81
2022/05/20 13:02:43;;;;;;;9.68;3.80;;;28.30;84.20;;;;;;5050356;28;20033;-81
2022/05/20 13:05:17;;;;;;;10.60;4.13;;;28.10;85.20;;;;;;5047247;28;20036;-81
2022/05/20 13:07:44;;;;;;;10.70;3.83;;;27.90;88.90;;;;;;5064249;28;20468;-82
2022/05/20 13:10:34;;;;;;;11.10;3.63;;;27.60;89.00;;;;;;5049995;28;20025;-82
2022/05/20 13:13:04;;;;;;;10.35;4.05;;;27.40;90.20;;;;;;5049329;28;20025;-82
2022/05/20 13:15:30;;;;;;;11.88;4.45;;;27.00;91.80;;;;;;5069903;28;20041;-82
2022/05/20 13:18:09;;;;;;;10.88;3.92;;;26.80;92.00;;;;;;5050327;28;20025;-82
2022/05/20 13:20:36;;;;;;;15.65;4.05;;;26.60;91.60;;;;;;5058396;28;20021;-82
2022/05/20 13:23:05;;;;;;;12.23;3.88;;;26.20;92.30;;;;;;5055779;28;20095;-84
2022/05/20 13:25:31;;;;;;;9.83;4.27;;;26.00;93.90;;;;;;5055537;28;20118;-81
2022/05/20 13:27:59;;;;;;;12.70;4.35;;;25.90;95.20;;;;;;5054427;28;20279;-82
2022/05/20 13:30:29;;;;;;;8.88;4.15;;;25.80;94.40;;;;;;5051591;28;20056;-81
2022/05/20 13:33:05;;;;;;;;;;;25.70;94.90;;;;;;5056567;28;20021;-81
2022/05/20 13:35:45;;;;;;;10.30;3.97;;;25.70;95.10;;;;;;5056053;28;19909;-82
2022/05/20 13:38:11;;;;;;;;;;;25.70;95.90;;;;;;5058096;28;20025;-82
2022/05/20 13:40:44;;;;;;;9.10;4.38;;;25.50;97.60;;;;;;5054839;28;19965;-81
2022/05/20 13:43:11;;;;;;;9.23;4.40;;;25.60;99.20;;;;;;5054190;28;20423;-82
2022/05/20 13:51:26;;;;;;;14.30;5.10;;;25.50;99.90;;;;;;5052747;28;20055;-82
2022/05/20 13:53:55;;;;;;;14.27;4.38;;;25.60;99.90;;;;;;5052250;28;20036;-82
2022/05/20 13:56:29;;;;;;;7.73;3.03;;;25.50;99.90;;;;;;5050493;28;20053;-81